• Join FlightAware (Why Join?)
  • Login
  • US Flag 
09:54AM EDT


 

Airport Tracker/Info


-or-


 

Live Flight TrackerFlight Track Log ✈ N1803M ✈ 25-Jul-2013 ✈ KSMD - KHAO

Flight Track Log - Related Links

Times and Time Zones

All times are in EDT time to prevent confusion due to time zone crossing. See the N1803M flight status page for this flight to view local times or setup timezone preferences in your user account.

Time Position Orientation Groundspeed Altitude Reporting Facility
EDT Latitude Longitude Course Direction KTS MPH feet Rate Location/Type
07:53PM 41.1453 -85.0275 164° South 108 124 3,700  Level Chicago Center
07:54PM 41.1211 -85.0200 167° South 98 113 4,300 600 Climbing Chicago Center
07:55PM 41.0919 -85.0111 167° South 92 106 5,000 300 Climbing Chicago Center
07:56PM 41.0631 -85.0044 170° South 96 110 5,000  Level Chicago Center
07:57PM 40.8963 -85.0631 165° South  Level Estimated
07:57PM 41.0264 -84.9942 168° South 116 133 5,000  Level Chicago Center
07:58PM 40.8611 -85.0496 164° South  Level FlightAware Approximate
07:58PM 40.9889 -84.9872 172° South 129 148 5,000  Level Chicago Center
07:59PM 40.9542 -84.9742 164° South 131 151 5,000  Level Chicago Center
08:00PM 40.9194 -84.9619 165° South 130 150 5,000  Level Chicago Center
08:01PM 40.8753 -84.9569 175° South 130 150 5,000  Level Chicago Center
08:02PM 40.8392 -84.9467 168° South 132 152 5,000  Level Chicago Center
08:03PM 40.8036 -84.9372 169° South 132 152 5,000  Level Chicago Center
08:04PM 40.7697 -84.9256 165° South 129 148 5,000  Level Chicago Center
08:05PM 40.7361 -84.9136 165° South 127 146 5,000  Level Chicago Center
08:06PM 40.7019 -84.9017 165° South 126 145 5,000  Level Chicago Center
08:07PM 40.6594 -84.8925 171° South 128 147 5,000  Level Chicago Center
08:08PM 40.6242 -84.8844 170° South 128 147 5,000  Level Chicago Center
08:09PM 40.5889 -84.8744 168° South 129 148 5,000  Level Chicago Center
08:10PM 40.5550 -84.8631 166° South 127 146 5,000  Level Chicago Center
08:11PM 40.5206 -84.8511 165° South 128 147 5,000  Level Chicago Center
08:12PM 40.4867 -84.8411 167° South 127 146 5,000  Level Chicago Center
08:13PM 40.4467 -84.8275 165° South 125 144 5,000  Level Chicago Center
08:14PM 40.4131 -84.8250 177° South 124 143 5,000  Level Chicago Center
08:15PM 40.3956 -84.8203 168° South 123 142 5,000  Level Indianapolis Center
08:16PM 40.3611 -84.8111 169° South 124 143 5,000  Level Indianapolis Center
08:17PM 40.3256 -84.8003 167° South 125 144 5,000  Level Indianapolis Center
08:18PM 40.2911 -84.7883 165° South 123 142 5,000  Level Indianapolis Center
08:19PM 40.2583 -84.7794 168° South 126 145 5,000 -360 Level Indianapolis Center
08:20PM 40.2181 -84.7656 165° South 128 147 4,300 -480 Descending Indianapolis Center
08:21PM 40.1836 -84.7531 165° South 128 147 4,000 -180 Descending Indianapolis Center
08:22PM 40.1525 -84.7458 170° South 126 145 4,000  Level Indianapolis Center
08:23PM 40.1150 -84.7333 166° South 126 145 4,000  Level Indianapolis Center
08:24PM 40.0853 -84.7250 168° South 123 142 4,000  Level Indianapolis Center
08:25PM 40.0528 -84.7161 168° South 122 140 4,000  Level Indianapolis Center
08:26PM 40.0200 -84.7072 168° South 121 139 4,000  Level Indianapolis Center
08:27PM 39.9756 -84.6936 167° South 122 140 4,000  Level Indianapolis Center
08:28PM 39.9503 -84.6889 172° South 123 142 4,000  Level Indianapolis Center
08:29PM 39.9153 -84.6825 172° South 123 142 4,000  Level Indianapolis Center
08:30PM 39.8825 -84.6736 168° South 124 143 4,000  Level Indianapolis Center
08:31PM 39.8478 -84.6644 169° South 124 143 4,000  Level Indianapolis Center
08:32PM 39.8131 -84.6553 169° South 125 144 4,000  Level Indianapolis Center
08:33PM 39.7761 -84.6456 169° South 126 145 4,000  Level Indianapolis Center
08:34PM 39.7475 -84.6378 168° South 126 145 4,000  Level Indianapolis Center
08:36PM 39.7025 -84.6200 163° South 124 143 4,000  Level Indianapolis Center
08:36PM 39.6764 -84.6136 169° South 124 143 4,000  Level Indianapolis Center
08:38PM 39.6289 -84.5969 165° South 124 143 4,000  Level Indianapolis Center
08:39PM 39.5956 -84.5861 166° South 125 144 4,000 -300 Level Indianapolis Center
08:40PM 39.5608 -84.5750 166° South 125 144 3,400 -480 Descending Indianapolis Center
08:41PM 39.5258 -84.5628 165° South 127 146 3,100 -240 Descending Indianapolis Center
08:42PM 39.4922 -84.5486 162° South 128 147 3,000 -60 Descending Indianapolis Center
08:43PM 39.4622 -84.5261 150° Southeast 126 145 3,000 -180 Level Indianapolis Center
08:44PM 39.4283 -84.5006 150° Southeast 125 144 2,700 -300 Descending Indianapolis Center
08:46PM 39.3743 -84.5185 166° South  Level Estimated
08:53PM 39.3638 -84.5219 166° South  Level Estimated
08:54PM 39.3638 -84.5219 166° South  Level Estimated